Time;durP1;ratioP1;P1;durP2;ratioP2;P2;SDS_P1;SDS_P2;PMS_P1;PMS_P2;Temp;Humidity;BMP_temperature;BMP_pressure;BME280_temperature;BME280_humidity;BME280_pressure;Samples;Min_cycle;Max_cycle;Signal;HPM_P1;HPM_P2
2021/06/27 00:00:17;;;;;;;58.95;44.13;;;;;;;;;;4995806;28;20606;-66
2021/06/27 00:02:42;;;;;;;58.33;44.10;;;;;;;;;;4989516;28;20286;-66
2021/06/27 00:05:10;;;;;;;63.35;43.72;;;;;;;;;;4998096;28;20770;-66
2021/06/27 00:07:36;;;;;;;59.97;43.28;;;;;;;;;;4987417;28;20264;-66
2021/06/27 00:10:08;;;;;;;64.13;43.90;;;;;;;;;;4998557;28;20610;-68
2021/06/27 00:12:34;;;;;;;60.95;42.47;;;;;;;;;;4989667;28;20210;-67
2021/06/27 00:14:59;;;;;;;61.10;44.25;;;;;;;;;;4997497;28;20179;-66
2021/06/27 00:17:25;;;;;;;62.45;43.88;;;;;;;;;;4998704;28;20190;-66
2021/06/27 00:19:50;;;;;;;60.90;42.42;;;;;;;;;;4985212;28;20186;-67
2021/06/27 00:22:16;;;;;;;59.35;42.83;;;;;;;;;;4995858;28;20197;-67
2021/06/27 00:24:41;;;;;;;59.42;42.80;;;;;;;;;;4989032;28;20178;-67
2021/06/27 00:27:07;;;;;;;61.72;42.28;;;;;;;;;;4996025;28;20229;-67
2021/06/27 00:29:32;;;;;;;60.72;44.10;;;;;;;;;;4987612;28;20253;-67
2021/06/27 00:31:58;;;;;;;62.85;43.15;;;;;;;;;;4996457;28;20300;-66
2021/06/27 00:34:23;;;;;;;62.15;41.78;;;;;;;;;;4986900;28;20198;-66
2021/06/27 00:36:48;;;;;;;60.33;42.05;;;;;;;;;;4997959;28;20232;-66
2021/06/27 00:39:14;;;;;;;61.17;42.17;;;;;;;;;;4986646;28;20182;-67
2021/06/27 00:41:39;;;;;;;60.35;41.78;;;;;;;;;;4998302;28;20190;-67
2021/06/27 00:44:05;;;;;;;63.38;42.58;;;;;;;;;;4986384;28;20293;-67
2021/06/27 00:46:30;;;;;;;62.60;42.90;;;;;;;;;;4996772;28;20202;-67
2021/06/27 00:48:55;;;;;;;53.22;38.80;;;;;;;;;;4996171;28;20269;-66
2021/06/27 00:51:22;;;;;;;56.25;39.97;;;;;;;;;;4986779;28;20201;-66
2021/06/27 00:53:49;;;;;;;59.60;41.67;;;;;;;;;;4997035;28;20193;-66
2021/06/27 00:56:16;;;;;;;55.92;40.33;;;;;;;;;;4987404;28;20243;-66
2021/06/27 00:58:43;;;;;;;61.95;42.88;;;;;;;;;;4997064;28;20226;-67
2021/06/27 01:01:09;;;;;;;58.45;41.08;;;;;;;;;;4986381;28;20210;-67
2021/06/27 01:03:35;;;;;;;59.78;41.55;;;;;;;;;;4994391;28;20195;-68
2021/06/27 01:06:01;;;;;;;57.10;40.13;;;;;;;;;;4988341;28;20290;-66
2021/06/27 01:08:26;;;;;;;59.15;40.40;;;;;;;;;;4994285;28;20588;-66
2021/06/27 01:10:52;;;;;;;62.03;41.67;;;;;;;;;;4986640;28;20203;-66
2021/06/27 01:13:21;;;;;;;60.45;41.70;;;;;;;;;;4993677;28;20187;-66
2021/06/27 01:15:47;;;;;;;62.58;42.13;;;;;;;;;;4987806;28;20189;-67
2021/06/27 01:18:12;;;;;;;61.05;42.55;;;;;;;;;;4991763;28;20194;-66
2021/06/27 01:20:39;;;;;;;61.47;41.67;;;;;;;;;;4997060;28;20204;-66
2021/06/27 01:23:09;;;;;;;60.65;41.40;;;;;;;;;;4984212;28;20642;-66
2021/06/27 01:25:38;;;;;;;56.78;40.58;;;;;;;;;;4998223;28;20190;-67
2021/06/27 01:28:05;;;;;;;61.75;41.67;;;;;;;;;;4983162;28;20202;-67
2021/06/27 01:30:32;;;;;;;64.15;42.22;;;;;;;;;;4998828;28;20209;-66
2021/06/27 01:33:00;;;;;;;63.72;42.58;;;;;;;;;;4991729;28;20202;-67
2021/06/27 01:35:26;;;;;;;63.67;39.90;;;;;;;;;;5000167;28;20274;-67
2021/06/27 01:37:53;;;;;;;62.42;41.03;;;;;;;;;;4989758;28;20615;-67
2021/06/27 01:40:22;;;;;;;62.17;42.67;;;;;;;;;;4997676;28;20194;-67
2021/06/27 01:42:48;;;;;;;65.05;43.92;;;;;;;;;;4989207;28;20663;-67
2021/06/27 01:45:24;;;;;;;58.40;41.00;;;;;;;;;;4998823;28;20649;-68
2021/06/27 01:47:57;;;;;;;65.47;42.78;;;;;;;;;;4989540;28;20301;-67
2021/06/27 01:50:24;;;;;;;63.15;41.80;;;;;;;;;;4998115;28;20241;-66
2021/06/27 01:52:50;;;;;;;65.53;43.47;;;;;;;;;;4988567;28;20690;-67
2021/06/27 01:55:16;;;;;;;65.10;42.63;;;;;;;;;;4996532;28;20179;-67
2021/06/27 01:57:42;;;;;;;65.65;43.35;;;;;;;;;;4994993;28;20696;-67
2021/06/27 02:00:09;;;;;;;67.85;43.67;;;;;;;;;;4994666;28;20297;-66
2021/06/27 02:02:34;;;;;;;70.28;45.22;;;;;;;;;;4998561;28;20190;-66
2021/06/27 02:05:00;;;;;;;68.30;44.28;;;;;;;;;;4989466;28;20194;-67
2021/06/27 02:07:25;;;;;;;70.35;44.05;;;;;;;;;;4997822;28;20623;-67
2021/06/27 02:09:51;;;;;;;73.40;46.10;;;;;;;;;;4992558;28;20203;-67
2021/06/27 02:12:16;;;;;;;69.47;45.05;;;;;;;;;;4997803;28;20438;-67
2021/06/27 02:14:42;;;;;;;70.10;44.33;;;;;;;;;;4990809;28;20191;-66
2021/06/27 02:17:09;;;;;;;67.57;44.05;;;;;;;;;;4997232;28;20280;-67
2021/06/27 02:19:35;;;;;;;65.38;44.30;;;;;;;;;;4990928;28;20228;-67
2021/06/27 02:22:00;;;;;;;73.22;45.13;;;;;;;;;;4994421;28;20301;-67
2021/06/27 02:24:26;;;;;;;71.75;44.92;;;;;;;;;;4991729;28;21697;-67
2021/06/27 02:26:52;;;;;;;75.75;46.78;;;;;;;;;;4995679;28;20540;-66
2021/06/27 02:29:17;;;;;;;75.55;47.03;;;;;;;;;;4997717;28;20190;-66
2021/06/27 02:31:49;;;;;;;72.38;46.03;;;;;;;;;;4989389;28;20549;-67
2021/06/27 02:34:14;;;;;;;72.88;45.97;;;;;;;;;;4998903;28;20167;-67
2021/06/27 02:36:40;;;;;;;74.95;46.33;;;;;;;;;;4987076;28;20221;-66
2021/06/27 02:39:06;;;;;;;73.78;45.83;;;;;;;;;;4999364;28;20203;-67
2021/06/27 02:41:33;;;;;;;78.88;48.08;;;;;;;;;;4988547;28;20191;-67
2021/06/27 02:43:59;;;;;;;71.57;45.15;;;;;;;;;;5001461;28;20257;-67
2021/06/27 02:46:24;;;;;;;75.10;46.40;;;;;;;;;;4989113;28;20310;-67
2021/06/27 02:48:50;;;;;;;80.35;49.17;;;;;;;;;;5000025;28;20274;-67
2021/06/27 02:51:15;;;;;;;75.63;46.13;;;;;;;;;;4986034;28;20841;-67
2021/06/27 02:53:41;;;;;;;76.35;45.75;;;;;;;;;;4998467;28;20522;-67
2021/06/27 02:56:09;;;;;;;73.45;45.65;;;;;;;;;;4989476;28;20245;-67
2021/06/27 02:58:38;;;;;;;76.25;45.20;;;;;;;;;;4997820;28;20460;-66
2021/06/27 03:01:05;;;;;;;69.35;42.78;;;;;;;;;;4992502;28;20214;-65
2021/06/27 03:03:30;;;;;;;74.07;46.65;;;;;;;;;;4998050;28;20241;-65
2021/06/27 03:05:56;;;;;;;72.55;46.17;;;;;;;;;;4997514;28;20207;-65
2021/06/27 03:08:21;;;;;;;78.93;46.92;;;;;;;;;;4989123;28;20217;-65
2021/06/27 03:10:46;;;;;;;77.78;48.17;;;;;;;;;;4995741;28;20213;-66
2021/06/27 03:13:12;;;;;;;73.05;45.67;;;;;;;;;;4988832;28;20203;-66
2021/06/27 03:15:37;;;;;;;67.90;43.15;;;;;;;;;;4996409;28;20191;-66
2021/06/27 03:18:03;;;;;;;75.50;46.20;;;;;;;;;;4988278;28;20631;-66
2021/06/27 03:20:28;;;;;;;72.47;44.47;;;;;;;;;;4995606;28;20201;-66
2021/06/27 03:22:54;;;;;;;72.35;44.92;;;;;;;;;;4989107;28;20191;-66
2021/06/27 03:25:25;;;;;;;71.25;45.03;;;;;;;;;;4995082;28;20281;-66
2021/06/27 03:27:51;;;;;;;76.75;47.72;;;;;;;;;;4989981;28;20237;-66
2021/06/27 03:30:17;;;;;;;85.30;49.67;;;;;;;;;;4995593;28;20184;-66
2021/06/27 03:32:44;;;;;;;79.55;47.38;;;;;;;;;;4992317;28;20570;-66
2021/06/27 03:35:10;;;;;;;82.70;48.72;;;;;;;;;;4993144;28;20544;-66
2021/06/27 03:37:35;;;;;;;78.10;47.53;;;;;;;;;;4996632;28;20183;-66
2021/06/27 03:40:03;;;;;;;84.80;49.78;;;;;;;;;;4986210;28;20547;-66
2021/06/27 03:42:28;;;;;;;77.18;46.63;;;;;;;;;;4995147;28;20646;-66
2021/06/27 03:44:53;;;;;;;79.05;45.42;;;;;;;;;;4986962;28;20241;-66
2021/06/27 03:47:19;;;;;;;79.55;46.08;;;;;;;;;;4993680;28;20207;-66
2021/06/27 03:49:45;;;;;;;79.55;48.53;;;;;;;;;;4985630;28;20334;-66
2021/06/27 03:52:10;;;;;;;92.72;50.92;;;;;;;;;;4995425;28;20332;-66
2021/06/27 03:54:36;;;;;;;79.80;48.38;;;;;;;;;;4986314;28;20201;-66
2021/06/27 03:57:01;;;;;;;81.50;48.38;;;;;;;;;;4995778;28;20297;-66
2021/06/27 03:59:26;;;;;;;87.13;49.55;;;;;;;;;;4987535;28;20183;-66
2021/06/27 04:01:52;;;;;;;88.88;51.08;;;;;;;;;;4994333;28;20210;-66
2021/06/27 04:04:17;;;;;;;80.55;49.20;;;;;;;;;;4995397;28;20194;-66
2021/06/27 04:06:42;;;;;;;77.25;48.05;;;;;;;;;;4988714;28;20212;-66
2021/06/27 04:09:08;;;;;;;90.47;50.35;;;;;;;;;;4993221;28;20718;-66
2021/06/27 04:11:33;;;;;;;83.07;50.20;;;;;;;;;;4986621;28;20229;-66
2021/06/27 04:13:58;;;;;;;83.22;48.13;;;;;;;;;;4992799;28;20193;-66
2021/06/27 04:16:24;;;;;;;83.00;49.70;;;;;;;;;;4985862;28;20236;-66
2021/06/27 04:18:49;;;;;;;80.20;48.47;;;;;;;;;;4994055;28;20596;-67
2021/06/27 04:21:15;;;;;;;82.97;49.78;;;;;;;;;;4984567;28;20190;-66
2021/06/27 04:23:40;;;;;;;76.60;47.30;;;;;;;;;;4994666;28;20208;-66
2021/06/27 04:26:06;;;;;;;82.85;47.65;;;;;;;;;;4987441;28;20193;-66
2021/06/27 04:28:31;;;;;;;72.97;44.85;;;;;;;;;;4995224;28;20758;-66
2021/06/27 04:30:57;;;;;;;78.18;48.03;;;;;;;;;;4988435;28;20324;-66
2021/06/27 04:33:23;;;;;;;74.00;43.67;;;;;;;;;;4298316;28;10000764;-66
2021/06/27 04:35:48;;;;;;;70.03;46.40;;;;;;;;;;4990136;28;20197;-66
2021/06/27 04:38:17;;;;;;;70.38;44.47;;;;;;;;;;4980474;28;20745;-66
2021/06/27 04:40:42;;;;;;;63.80;43.17;;;;;;;;;;4991156;28;20190;-66
2021/06/27 04:43:08;;;;;;;60.13;41.38;;;;;;;;;;4982280;28;20191;-66
2021/06/27 04:45:36;;;;;;;66.25;41.67;;;;;;;;;;4988625;28;20270;-66
2021/06/27 04:48:04;;;;;;;58.38;39.05;;;;;;;;;;4981529;28;20757;-66
2021/06/27 04:50:29;;;;;;;64.18;39.53;;;;;;;;;;4990041;28;20261;-66
2021/06/27 04:52:55;;;;;;;60.75;41.95;;;;;;;;;;4980220;28;20218;-66
2021/06/27 04:55:20;;;;;;;59.83;40.17;;;;;;;;;;4987820;28;20186;-66
2021/06/27 04:57:46;;;;;;;62.08;39.90;;;;;;;;;;4983493;28;20670;-66
2021/06/27 05:00:12;;;;;;;59.97;40.63;;;;;;;;;;4984795;28;21344;-66
2021/06/27 05:02:37;;;;;;;56.88;39.20;;;;;;;;;;4985077;28;20633;-67
2021/06/27 05:05:04;;;;;;;55.67;39.42;;;;;;;;;;4984795;28;20409;-66
2021/06/27 05:07:30;;;;;;;58.63;40.55;;;;;;;;;;4990888;28;20214;-66
2021/06/27 05:09:56;;;;;;;57.83;39.28;;;;;;;;;;4981497;28;20190;-66
2021/06/27 05:12:25;;;;;;;58.13;40.33;;;;;;;;;;4988771;28;20202;-66
2021/06/27 05:14:51;;;;;;;61.80;42.08;;;;;;;;;;4980388;28;20207;-66
2021/06/27 05:17:17;;;;;;;63.88;40.88;;;;;;;;;;4988707;28;20354;-66
2021/06/27 05:19:42;;;;;;;61.88;41.65;;;;;;;;;;4982688;28;20214;-67
2021/06/27 05:22:07;;;;;;;62.38;41.92;;;;;;;;;;4991388;28;20194;-66
2021/06/27 05:24:33;;;;;;;62.05;40.60;;;;;;;;;;4982966;28;20191;-66
2021/06/27 05:26:58;;;;;;;61.90;41.65;;;;;;;;;;5003309;28;20603;-66
2021/06/27 05:29:24;;;;;;;62.95;43.65;;;;;;;;;;4979473;28;20293;-66
2021/06/27 05:31:49;;;;;;;57.42;39.38;;;;;;;;;;4989804;28;20580;-66
2021/06/27 05:34:14;;;;;;;61.40;41.25;;;;;;;;;;4989212;28;20289;-66
2021/06/27 05:36:40;;;;;;;61.90;41.55;;;;;;;;;;4982334;28;20200;-66
2021/06/27 05:39:07;;;;;;;66.82;43.75;;;;;;;;;;4988144;28;20191;-66
2021/06/27 05:41:32;;;;;;;62.03;43.47;;;;;;;;;;4984395;28;20202;-66
2021/06/27 05:43:58;;;;;;;67.70;42.42;;;;;;;;;;4989096;28;20193;-66
2021/06/27 05:46:23;;;;;;;61.70;41.95;;;;;;;;;;4980700;28;20244;-66
2021/06/27 05:48:48;;;;;;;62.67;42.63;;;;;;;;;;4988536;28;20249;-66
2021/06/27 05:51:14;;;;;;;64.28;43.85;;;;;;;;;;4979263;28;20569;-66
2021/06/27 05:53:40;;;;;;;62.72;42.83;;;;;;;;;;4987310;28;20199;-66
2021/06/27 05:56:09;;;;;;;60.85;41.85;;;;;;;;;;4978643;28;20195;-66
2021/06/27 05:58:39;;;;;;;60.80;42.60;;;;;;;;;;4986025;28;20549;-66
2021/06/27 06:01:06;;;;;;;59.53;41.10;;;;;;;;;;4979903;28;20620;-66
2021/06/27 06:03:31;;;;;;;60.95;41.60;;;;;;;;;;4984926;28;20693;-66
2021/06/27 06:05:57;;;;;;;55.60;42.28;;;;;;;;;;4988169;28;20186;-67
2021/06/27 06:08:22;;;;;;;63.88;42.35;;;;;;;;;;4979307;28;20215;-66
2021/06/27 06:10:47;;;;;;;59.03;42.35;;;;;;;;;;4989837;28;20256;-65
2021/06/27 06:13:13;;;;;;;61.60;43.15;;;;;;;;;;4976494;28;20178;-66
2021/06/27 06:15:38;;;;;;;56.97;41.38;;;;;;;;;;4991650;28;20590;-66
2021/06/27 06:18:03;;;;;;;56.10;38.95;;;;;;;;;;4983779;28;20269;-66
2021/06/27 06:20:29;;;;;;;54.35;39.30;;;;;;;;;;4991429;28;20224;-66
2021/06/27 06:22:55;;;;;;;55.08;39.30;;;;;;;;;;4979202;28;20193;-65
2021/06/27 06:25:20;;;;;;;55.17;39.75;;;;;;;;;;4990698;28;20183;-66
2021/06/27 06:27:45;;;;;;;59.28;40.95;;;;;;;;;;4986663;28;20218;-66
2021/06/27 06:30:12;;;;;;;50.67;38.15;;;;;;;;;;4995552;28;20183;-66
2021/06/27 06:32:37;;;;;;;49.63;38.00;;;;;;;;;;4988641;28;20199;-66
2021/06/27 06:35:03;;;;;;;50.00;37.60;;;;;;;;;;4994458;28;20219;-66
2021/06/27 06:37:28;;;;;;;50.70;37.35;;;;;;;;;;4994472;28;20191;-66
2021/06/27 06:39:53;;;;;;;49.63;37.70;;;;;;;;;;4987768;28;20198;-66
2021/06/27 06:42:19;;;;;;;50.10;36.20;;;;;;;;;;4995536;28;20194;-66
2021/06/27 06:44:44;;;;;;;50.00;35.83;;;;;;;;;;4984724;28;20198;-66
2021/06/27 06:47:09;;;;;;;51.33;36.78;;;;;;;;;;4994261;28;20210;-66
2021/06/27 06:49:35;;;;;;;50.20;37.35;;;;;;;;;;4984562;28;20246;-65
2021/06/27 06:52:00;;;;;;;49.28;37.33;;;;;;;;;;4993800;28;20206;-66
2021/06/27 06:54:25;;;;;;;50.75;36.47;;;;;;;;;;4985417;28;20310;-65
2021/06/27 06:56:51;;;;;;;49.58;37.10;;;;;;;;;;4995916;28;20191;-65
2021/06/27 06:59:16;;;;;;;47.13;34.40;;;;;;;;;;4983219;28;20618;-66
2021/06/27 07:01:42;;;;;;;48.47;35.22;;;;;;;;;;4994004;28;20207;-65
2021/06/27 07:04:07;;;;;;;50.47;34.45;;;;;;;;;;4991731;28;20741;-65
2021/06/27 07:06:32;;;;;;;46.80;35.65;;;;;;;;;;4986311;28;20287;-66
2021/06/27 07:08:58;;;;;;;45.20;33.70;;;;;;;;;;4995744;28;20218;-66
2021/06/27 07:11:23;;;;;;;40.30;31.02;;;;;;;;;;4984252;28;20261;-66
2021/06/27 07:13:48;;;;;;;44.42;33.92;;;;;;;;;;4996070;28;20194;-66
2021/06/27 07:16:14;;;;;;;41.88;32.88;;;;;;;;;;4988383;28;21372;-66
2021/06/27 07:18:39;;;;;;;44.10;33.25;;;;;;;;;;4994784;28;20260;-66
2021/06/27 07:21:04;;;;;;;42.58;33.83;;;;;;;;;;4987217;28;20195;-65
2021/06/27 07:23:30;;;;;;;45.10;33.38;;;;;;;;;;4997354;28;20193;-65
2021/06/27 07:25:56;;;;;;;41.53;33.47;;;;;;;;;;4987802;28;20280;-66
2021/06/27 07:28:21;;;;;;;43.67;32.53;;;;;;;;;;4992327;28;20211;-66
2021/06/27 07:30:46;;;;;;;43.08;33.65;;;;;;;;;;4647667;28;10000208;-66
2021/06/27 07:33:12;;;;;;;43.05;33.67;;;;;;;;;;4984515;28;20521;-66
2021/06/27 07:35:37;;;;;;;41.85;32.70;;;;;;;;;;4990068;28;20560;-66
2021/06/27 07:38:03;;;;;;;42.28;32.92;;;;;;;;;;4980275;28;20198;-66
2021/06/27 07:40:28;;;;;;;43.28;32.78;;;;;;;;;;4989157;28;20194;-66
2021/06/27 07:42:54;;;;;;;41.05;31.83;;;;;;;;;;4981000;28;20702;-66
2021/06/27 07:45:19;;;;;;;42.03;32.35;;;;;;;;;;4990190;28;20183;-66
2021/06/27 07:47:46;;;;;;;39.42;31.25;;;;;;;;;;4984511;28;20206;-66
2021/06/27 07:50:11;;;;;;;40.28;31.15;;;;;;;;;;4991212;28;20280;-66
2021/06/27 07:52:38;;;;;;;41.28;30.95;;;;;;;;;;4981000;28;20199;-66
2021/06/27 07:55:05;;;;;;;42.35;31.88;;;;;;;;;;4989557;28;20190;-66
2021/06/27 07:57:30;;;;;;;40.95;30.73;;;;;;;;;;4988099;28;20344;-66
2021/06/27 07:59:56;;;;;;;39.15;31.08;;;;;;;;;;4996699;28;20290;-66
2021/06/27 08:02:21;;;;;;;42.08;30.55;;;;;;;;;;4992314;28;20184;-66
2021/06/27 08:04:46;;;;;;;40.25;31.90;;;;;;;;;;4986884;28;20226;-66
2021/06/27 08:07:12;;;;;;;39.10;31.33;;;;;;;;;;4992433;28;20297;-66
2021/06/27 08:09:37;;;;;;;42.85;30.42;;;;;;;;;;4983720;28;20629;-66
2021/06/27 08:12:03;;;;;;;38.33;30.77;;;;;;;;;;4992574;28;20320;-64
2021/06/27 08:14:28;;;;;;;38.50;29.25;;;;;;;;;;4985514;28;20197;-64
2021/06/27 08:16:53;;;;;;;37.63;30.42;;;;;;;;;;4991796;28;20195;-64
2021/06/27 08:19:19;;;;;;;35.45;29.73;;;;;;;;;;4985827;28;20191;-65
2021/06/27 08:21:44;;;;;;;37.38;30.33;;;;;;;;;;4994704;28;20277;-65
2021/06/27 08:24:09;;;;;;;33.65;28.65;;;;;;;;;;4984635;28;20839;-66
2021/06/27 08:26:35;;;;;;;38.50;29.92;;;;;;;;;;4991951;28;20279;-65
2021/06/27 08:29:00;;;;;;;37.50;30.67;;;;;;;;;;4987245;28;20214;-65
2021/06/27 08:31:26;;;;;;;33.42;29.20;;;;;;;;;;4994288;28;20198;-65
2021/06/27 08:33:52;;;;;;;37.08;29.30;;;;;;;;;;4994135;28;20199;-66
2021/06/27 08:36:18;;;;;;;38.15;29.95;;;;;;;;;;4985878;28;20202;-65
2021/06/27 08:38:43;;;;;;;36.30;29.20;;;;;;;;;;4993661;28;20191;-65
2021/06/27 08:41:08;;;;;;;35.97;28.75;;;;;;;;;;4984340;28;20632;-66
2021/06/27 08:43:35;;;;;;;36.33;28.60;;;;;;;;;;4994205;28;20240;-66
2021/06/27 08:46:07;;;;;;;34.63;28.02;;;;;;;;;;4982611;28;20217;-66
2021/06/27 08:48:37;;;;;;;37.10;29.60;;;;;;;;;;4998449;28;20741;-65
2021/06/27 08:51:04;;;;;;;34.83;27.48;;;;;;;;;;4987283;28;20238;-66
2021/06/27 08:53:35;;;;;;;32.90;28.30;;;;;;;;;;4990539;28;21147;-65
2021/06/27 08:56:05;;;;;;;33.60;27.20;;;;;;;;;;4984913;28;20439;-66
2021/06/27 08:58:48;;;;;;;34.83;28.40;;;;;;;;;;4993398;28;21619;-65
2021/06/27 09:01:19;;;;;;;31.45;27.25;;;;;;;;;;4985076;28;20218;-66
2021/06/27 09:03:45;;;;;;;33.15;26.88;;;;;;;;;;4994978;28;20560;-66
2021/06/27 09:06:11;;;;;;;33.78;27.40;;;;;;;;;;4987324;28;20194;-65
2021/06/27 09:08:36;;;;;;;34.97;27.48;;;;;;;;;;4995348;28;20535;-65
2021/06/27 09:11:14;;;;;;;35.40;27.05;;;;;;;;;;4995450;28;20202;-66
2021/06/27 09:13:43;;;;;;;33.10;26.95;;;;;;;;;;5012045;28;20718;-65
2021/06/27 09:16:18;;;;;;;32.78;26.60;;;;;;;;;;4994731;28;20210;-66
2021/06/27 09:18:43;;;;;;;30.55;25.90;;;;;;;;;;4989306;28;20191;-68
2021/06/27 09:21:10;;;;;;;32.47;24.77;;;;;;;;;;4994384;28;20705;-66
2021/06/27 09:23:38;;;;;;;30.80;24.17;;;;;;;;;;4988135;28;20214;-66
2021/06/27 09:26:03;;;;;;;31.73;25.52;;;;;;;;;;4994398;28;20270;-66
2021/06/27 09:28:42;;;;;;;34.17;26.38;;;;;;;;;;4987218;28;20221;-66
2021/06/27 09:31:08;;;;;;;32.40;25.25;;;;;;;;;;4995221;28;20198;-66
2021/06/27 09:33:33;;;;;;;32.38;26.63;;;;;;;;;;4990375;28;20198;-66
2021/06/27 09:36:11;;;;;;;31.40;24.60;;;;;;;;;;4993342;28;20584;-65
2021/06/27 09:38:51;;;;;;;30.17;23.80;;;;;;;;;;4986633;28;20191;-66
2021/06/27 09:41:32;;;;;;;28.60;24.50;;;;;;;;;;5010594;28;20638;-66
2021/06/27 09:44:01;;;;;;;33.15;23.30;;;;;;;;;;4986624;28;20206;-66
2021/06/27 09:46:30;;;;;;;28.92;23.77;;;;;;;;;;4994276;28;20206;-69
2021/06/27 09:48:58;;;;;;;32.67;24.77;;;;;;;;;;4989573;28;20762;-67
2021/06/27 09:51:27;;;;;;;29.23;24.48;;;;;;;;;;4994375;28;20179;-66
2021/06/27 09:53:53;;;;;;;29.27;23.95;;;;;;;;;;4992420;28;20226;-66
2021/06/27 09:56:20;;;;;;;32.70;24.27;;;;;;;;;;5002750;28;20191;-66
2021/06/27 09:59:03;;;;;;;28.38;23.90;;;;;;;;;;4992018;28;20713;-66
2021/06/27 10:01:30;;;;;;;27.75;23.38;;;;;;;;;;4998699;28;20574;-66
2021/06/27 10:03:57;;;;;;;25.50;22.45;;;;;;;;;;4992604;28;20248;-66
2021/06/27 10:06:25;;;;;;;29.52;23.85;;;;;;;;;;5000296;28;20230;-66
2021/06/27 10:08:51;;;;;;;26.33;23.10;;;;;;;;;;4999460;28;20641;-66
2021/06/27 10:11:24;;;;;;;25.48;22.70;;;;;;;;;;4989116;28;20281;-66
2021/06/27 10:13:54;;;;;;;29.92;23.25;;;;;;;;;;4997210;28;20194;-66
2021/06/27 10:16:32;;;;;;;22.40;20.00;;;;;;;;;;4990894;28;20552;-66
2021/06/27 10:18:58;;;;;;;31.08;22.65;;;;;;;;;;4999616;28;20194;-66
2021/06/27 10:21:25;;;;;;;25.38;21.50;;;;;;;;;;4991208;28;20198;-66
2021/06/27 10:23:51;;;;;;;24.77;22.08;;;;;;;;;;4997374;28;20333;-69
2021/06/27 10:26:19;;;;;;;25.95;22.45;;;;;;;;;;4991326;28;20713;-66
2021/06/27 10:28:47;;;;;;;27.25;20.92;;;;;;;;;;4999252;28;20213;-66
2021/06/27 10:31:13;;;;;;;29.27;21.98;;;;;;;;;;4988497;28;20482;-66
2021/06/27 10:33:45;;;;;;;25.73;20.83;;;;;;;;;;4988360;28;20205;-67
2021/06/27 10:36:12;;;;;;;21.60;18.77;;;;;;;;;;4989813;28;20214;-66
2021/06/27 10:38:47;;;;;;;23.67;19.95;;;;;;;;;;4997790;28;20715;-67
2021/06/27 10:41:12;;;;;;;28.50;22.05;;;;;;;;;;4987634;28;20198;-67
2021/06/27 10:43:56;;;;;;;24.50;21.73;;;;;;;;;;4997918;28;20202;-67
2021/06/27 10:46:59;;;;;;;26.42;22.08;;;;;;;;;;4986593;28;20570;-66
2021/06/27 10:49:33;;;;;;;17.05;15.25;;;;;;;;;;4957935;28;20328;-67
2021/06/27 10:52:12;;;;;;;16.27;12.85;;;;;;;;;;4994098;28;20198;-66
2021/06/27 10:54:42;;;;;;;14.25;12.75;;;;;;;;;;4998675;28;20194;-66
2021/06/27 10:57:14;;;;;;;16.80;15.00;;;;;;;;;;4989816;28;20194;-66
2021/06/27 10:59:39;;;;;;;18.35;15.02;;;;;;;;;;4995787;28;20659;-66
2021/06/27 11:02:39;;;;;;;15.15;13.38;;;;;;;;;;4988403;28;21566;-67
2021/06/27 11:05:32;;;;;;;19.38;14.73;;;;;;;;;;4996270;28;20221;-67
2021/06/27 11:07:59;;;;;;;15.88;14.27;;;;;;;;;;4995899;28;20219;-66
2021/06/27 11:10:24;;;;;;;17.50;14.82;;;;;;;;;;4997723;28;20222;-67
2021/06/27 11:13:01;;;;;;;15.18;13.43;;;;;;;;;;4988664;28;20222;-67
2021/06/27 11:15:37;;;;;;;14.93;12.23;;;;;;;;;;4996791;28;20191;-66
2021/06/27 11:18:10;;;;;;;18.30;14.52;;;;;;;;;;4986423;28;21131;-66
2021/06/27 11:20:55;;;;;;;19.00;16.95;;;;;;;;;;4999837;28;20237;-66
2021/06/27 11:23:46;;;;;;;19.60;15.57;;;;;;;;;;4989037;28;20194;-66
2021/06/27 11:26:51;;;;;;;16.30;14.60;;;;;;;;;;4997258;28;20188;-67
2021/06/27 11:29:23;;;;;;;15.18;13.63;;;;;;;;;;4990710;28;20218;-67
2021/06/27 11:31:54;;;;;;;14.95;13.35;;;;;;;;;;5013991;28;20222;-67
2021/06/27 11:34:19;;;;;;;14.77;13.23;;;;;;;;;;4987568;28;20187;-66
2021/06/27 11:36:45;;;;;;;16.25;13.50;;;;;;;;;;4994654;28;20190;-66
2021/06/27 11:39:43;;;;;;;15.90;14.20;;;;;;;;;;4994397;28;20190;-66
2021/06/27 11:42:26;;;;;;;14.88;13.38;;;;;;;;;;4995127;28;20211;-66
2021/06/27 11:47:36;;;;;;;14.02;12.52;;;;;;;;;;4997570;28;20210;-66
2021/06/27 11:50:18;;;;;;;13.38;11.98;;;;;;;;;;4987840;28;20314;-66
2021/06/27 11:52:49;;;;;;;14.90;12.30;;;;;;;;;;5002580;28;20553;-67
2021/06/27 11:55:14;;;;;;;12.43;11.23;;;;;;;;;;4986660;28;20201;-66
2021/06/27 11:57:41;;;;;;;14.90;13.50;;;;;;;;;;4997891;28;20646;-66
2021/06/27 12:00:09;;;;;;;13.63;10.73;;;;;;;;;;5000208;28;20214;-66
2021/06/27 12:02:36;;;;;;;12.30;11.10;;;;;;;;;;4998599;28;20193;-66
2021/06/27 12:05:02;;;;;;;12.05;10.85;;;;;;;;;;4996730;28;20197;-66
2021/06/27 12:07:31;;;;;;;14.32;12.82;;;;;;;;;;4987391;28;20190;-65
2021/06/27 12:09:58;;;;;;;13.85;11.13;;;;;;;;;;5001906;28;20195;-67
2021/06/27 12:12:43;;;;;;;11.25;10.25;;;;;;;;;;4987079;28;20202;-66
2021/06/27 12:15:14;;;;;;;10.73;9.55;;;;;;;;;;4995167;28;20883;-66
2021/06/27 12:17:39;;;;;;;11.70;10.25;;;;;;;;;;4988762;28;20199;-66
2021/06/27 12:20:05;;;;;;;11.65;10.45;;;;;;;;;;4996437;28;20195;-67
2021/06/27 12:22:31;;;;;;;11.90;10.68;;;;;;;;;;4990827;28;20199;-67
2021/06/27 12:25:02;;;;;;;11.65;10.52;;;;;;;;;;4994750;28;20528;-67
2021/06/27 12:27:27;;;;;;;9.30;8.50;;;;;;;;;;4988481;28;20222;-67
2021/06/27 12:29:54;;;;;;;9.02;8.13;;;;;;;;;;4995927;28;20646;-67
2021/06/27 12:32:19;;;;;;;9.60;8.55;;;;;;;;;;4986584;28;20222;-66
2021/06/27 12:34:46;;;;;;;10.13;9.05;;;;;;;;;;4993396;28;20191;-66
2021/06/27 12:37:13;;;;;;;9.00;8.20;;;;;;;;;;4986488;28;20209;-66
2021/06/27 12:39:39;;;;;;;9.32;8.43;;;;;;;;;;4996202;28;20535;-65
2021/06/27 12:42:30;;;;;;;9.15;8.30;;;;;;;;;;4995017;28;20191;-67
2021/06/27 12:44:56;;;;;;;8.50;7.70;;;;;;;;;;4993705;28;20199;-69
2021/06/27 12:47:30;;;;;;;8.18;7.45;;;;;;;;;;4999319;28;20287;-66
2021/06/27 12:49:55;;;;;;;8.82;7.97;;;;;;;;;;4992907;28;20261;-67
2021/06/27 12:52:22;;;;;;;8.45;7.72;;;;;;;;;;4994208;28;20265;-67
2021/06/27 12:54:48;;;;;;;8.00;7.20;;;;;;;;;;4984829;28;20190;-66
2021/06/27 12:57:13;;;;;;;8.52;7.82;;;;;;;;;;4993858;28;20195;-66
2021/06/27 12:59:42;;;;;;;9.18;8.27;;;;;;;;;;4986939;28;20692;-65
2021/06/27 13:02:16;;;;;;;8.45;7.72;;;;;;;;;;4992544;28;20268;-67
2021/06/27 13:04:45;;;;;;;8.52;7.72;;;;;;;;;;4987642;28;20194;-66
2021/06/27 13:07:11;;;;;;;7.85;6.85;;;;;;;;;;4991672;28;20532;-65
2021/06/27 13:09:39;;;;;;;7.28;6.57;;;;;;;;;;4987577;28;20210;-67
2021/06/27 13:12:08;;;;;;;10.30;7.65;;;;;;;;;;5007030;28;20245;-67
2021/06/27 13:14:34;;;;;;;7.78;7.07;;;;;;;;;;4988804;28;20198;-67
2021/06/27 13:17:08;;;;;;;8.85;7.20;;;;;;;;;;5009342;28;20281;-67
2021/06/27 13:19:34;;;;;;;7.80;7.00;;;;;;;;;;5001687;28;20188;-67
2021/06/27 13:22:13;;;;;;;7.80;6.35;;;;;;;;;;4995889;28;20644;-66
2021/06/27 13:24:57;;;;;;;8.02;7.22;;;;;;;;;;4988479;28;20183;-66
2021/06/27 13:27:22;;;;;;;7.32;6.80;;;;;;;;;;4991829;28;20257;-67
2021/06/27 13:30:00;;;;;;;7.85;6.93;;;;;;;;;;4986006;28;20190;-66
2021/06/27 13:32:26;;;;;;;7.57;6.88;;;;;;;;;;4996448;28;20198;-66
2021/06/27 13:34:51;;;;;;;10.20;6.97;;;;;;;;;;4997211;28;20206;-66
2021/06/27 13:37:17;;;;;;;7.72;6.95;;;;;;;;;;4986666;28;20217;-67
2021/06/27 13:39:44;;;;;;;7.55;6.85;;;;;;;;;;4995634;28;20197;-70
2021/06/27 13:42:10;;;;;;;8.18;7.47;;;;;;;;;;4983858;28;20186;-66
2021/06/27 13:44:35;;;;;;;7.38;6.68;;;;;;;;;;4991864;28;20191;-66
2021/06/27 13:47:00;;;;;;;8.23;6.50;;;;;;;;;;4984993;28;20195;-68
2021/06/27 13:49:26;;;;;;;7.10;6.50;;;;;;;;;;4993199;28;21348;-67
2021/06/27 13:51:51;;;;;;;7.13;6.43;;;;;;;;;;4986579;28;21152;-65
2021/06/27 13:54:16;;;;;;;8.45;7.50;;;;;;;;;;4993571;28;20202;-66
2021/06/27 13:56:46;;;;;;;7.18;6.43;;;;;;;;;;4985232;28;20901;-66
2021/06/27 13:59:11;;;;;;;7.63;6.40;;;;;;;;;;4995838;28;20702;-69
2021/06/27 14:01:37;;;;;;;6.88;6.28;;;;;;;;;;4982881;28;20211;-66
2021/06/27 14:04:05;;;;;;;7.15;6.45;;;;;;;;;;4993841;28;20187;-66
2021/06/27 14:06:31;;;;;;;6.85;6.18;;;;;;;;;;4996616;28;20515;-65
2021/06/27 14:08:57;;;;;;;8.30;6.93;;;;;;;;;;4987458;28;20226;-66
2021/06/27 14:11:24;;;;;;;7.32;6.38;;;;;;;;;;5007615;28;20569;-65
2021/06/27 14:13:49;;;;;;;9.07;6.78;;;;;;;;;;4986960;28;20280;-66
2021/06/27 14:16:15;;;;;;;7.05;5.68;;;;;;;;;;4991530;28;20363;-69
2021/06/27 14:18:42;;;;;;;6.00;5.47;;;;;;;;;;4986210;28;20191;-70
2021/06/27 14:21:11;;;;;;;6.05;5.47;;;;;;;;;;4995571;28;20187;-65
2021/06/27 14:23:37;;;;;;;6.00;5.45;;;;;;;;;;4986511;28;20183;-67
2021/06/27 14:26:03;;;;;;;6.57;5.90;;;;;;;;;;4994188;28;20508;-65